Time;durP1;ratioP1;P1;durP2;ratioP2;P2;SDS_P1;SDS_P2;PMS_P1;PMS_P2;Temp;Humidity;BMP_temperature;BMP_pressure;BME280_temperature;BME280_humidity;BME280_pressure;Samples;Min_cycle;Max_cycle;Signal;HPM_P1;HPM_P2
2021/08/05 00:00:47;;;;;;;4.25;3.85;;;18.50;60.00;;;;;;4992290;28;20061;-79
2021/08/05 00:03:13;;;;;;;4.85;4.45;;;18.60;60.30;;;;;;5009561;28;20448;-80
2021/08/05 00:05:39;;;;;;;4.38;3.97;;;18.50;60.20;;;;;;4990319;28;20078;-79
2021/08/05 00:08:05;;;;;;;5.03;4.38;;;18.50;60.20;;;;;;4989698;28;20899;-79
2021/08/05 00:10:33;;;;;;;5.00;4.55;;;18.50;60.30;;;;;;4989475;28;20161;-79
2021/08/05 00:12:59;;;;;;;4.88;4.45;;;18.50;60.30;;;;;;4989890;28;20026;-80
2021/08/05 00:15:25;;;;;;;5.18;4.68;;;18.50;60.40;;;;;;4989128;28;20027;-78
2021/08/05 00:17:51;;;;;;;6.60;4.63;;;18.40;60.30;;;;;;4980408;28;20489;-80
2021/08/05 00:20:17;;;;;;;4.93;4.45;;;18.40;60.40;;;;;;4989806;28;20038;-81
2021/08/05 00:22:43;;;;;;;7.00;4.57;;;18.40;60.50;;;;;;4956766;28;20034;-79
2021/08/05 00:25:09;;;;;;;5.05;4.60;;;18.40;60.50;;;;;;4972535;28;20111;-80
2021/08/05 00:27:35;;;;;;;4.60;4.20;;;18.40;60.60;;;;;;4988856;28;20080;-80
2021/08/05 00:30:01;;;;;;;4.78;4.28;;;18.30;60.40;;;;;;4989433;28;20031;-79
2021/08/05 00:32:27;;;;;;;4.82;4.30;;;18.30;60.50;;;;;;4988245;28;20034;-80
2021/08/05 00:34:53;;;;;;;5.70;4.60;;;18.20;60.40;;;;;;4989941;28;20038;-78
2021/08/05 00:37:19;;;;;;;6.38;4.95;;;18.20;60.50;;;;;;4989618;28;20037;-78
2021/08/05 00:39:45;;;;;;;4.15;3.72;;;18.30;60.70;;;;;;4987883;28;20373;-78
2021/08/05 00:42:11;;;;;;;4.70;4.30;;;18.20;60.60;;;;;;5004401;28;20042;-77
2021/08/05 00:44:37;;;;;;;6.47;4.40;;;18.20;60.60;;;;;;4971708;28;20305;-77
2021/08/05 00:47:07;;;;;;;5.32;4.82;;;18.20;60.60;;;;;;4971649;28;20042;-79
2021/08/05 00:49:34;;;;;;;5.72;5.18;;;18.20;60.70;;;;;;4971233;28;20029;-77
2021/08/05 00:52:00;;;;;;;4.72;4.25;;;18.10;60.50;;;;;;4964916;28;20045;-77
2021/08/05 00:54:26;;;;;;;4.90;4.47;;;18.10;60.70;;;;;;4979434;28;20038;-77
2021/08/05 00:56:52;;;;;;;4.57;4.18;;;18.10;60.70;;;;;;4997836;28;20041;-79
2021/08/05 00:59:18;;;;;;;4.90;4.40;;;18.10;60.70;;;;;;4996887;28;20030;-78
2021/08/05 01:01:49;;;;;;;5.85;4.72;;;18.10;60.70;;;;;;4990079;28;20057;-78
2021/08/05 01:04:16;;;;;;;5.18;4.78;;;18.10;60.80;;;;;;4987551;28;20501;-79
2021/08/05 01:07:01;;;;;;;4.75;4.20;;;18.10;60.80;;;;;;4989285;28;20034;-80
2021/08/05 01:09:54;;;;;;;4.90;4.45;;;18.00;60.80;;;;;;4974012;28;20077;-79
2021/08/05 01:12:41;;;;;;;5.47;4.43;;;18.00;60.80;;;;;;5008355;28;20030;-80
2021/08/05 01:15:15;;;;;;;5.43;4.65;;;17.90;60.60;;;;;;5007278;28;20262;-81
2021/08/05 01:17:47;;;;;;;;;;;17.90;60.70;;;;;;5007144;28;20512;-82
2021/08/05 01:20:17;;;;;;;5.88;4.97;;;17.90;60.60;;;;;;5006885;28;20337;-77
2021/08/05 01:23:10;;;;;;;5.72;5.13;;;17.90;60.60;;;;;;4982064;28;20026;-79
2021/08/05 01:25:51;;;;;;;6.03;4.68;;;17.80;60.60;;;;;;5008110;28;20049;-78
2021/08/05 01:28:18;;;;;;;6.00;5.00;;;17.80;60.70;;;;;;4990634;28;20473;-80
2021/08/05 01:30:47;;;;;;;7.22;5.65;;;17.80;60.70;;;;;;5021735;23;20056;-77
2021/08/05 01:33:17;;;;;;;5.05;4.65;;;17.80;60.80;;;;;;5062712;28;20128;-77
2021/08/05 01:35:44;;;;;;;5.80;5.30;;;17.70;60.80;;;;;;5049131;28;20379;-77
2021/08/05 01:38:12;;;;;;;6.07;5.50;;;17.70;60.80;;;;;;5047554;28;20055;-77
2021/08/05 01:40:40;;;;;;;6.53;5.68;;;17.70;60.80;;;;;;5030744;28;20048;-76
2021/08/05 01:43:06;;;;;;;6.28;5.68;;;17.60;60.70;;;;;;5047325;28;20033;-77
2021/08/05 01:45:33;;;;;;;6.20;5.60;;;17.60;60.80;;;;;;5030208;28;20045;-76
2021/08/05 01:48:10;;;;;;;5.70;5.20;;;17.60;60.80;;;;;;5057659;28;20021;-77
2021/08/05 01:50:37;;;;;;;5.72;5.10;;;17.60;61.00;;;;;;5066884;28;20033;-77
2021/08/05 01:53:05;;;;;;;6.75;6.07;;;17.50;60.80;;;;;;5071288;28;20123;-79
2021/08/05 01:55:33;;;;;;;6.22;5.63;;;17.50;60.90;;;;;;5081317;28;20401;-77
2021/08/05 01:57:59;;;;;;;6.18;5.57;;;17.50;61.00;;;;;;5053803;28;20470;-77
2021/08/05 02:00:25;;;;;;;6.38;5.78;;;17.50;61.00;;;;;;5069912;28;20395;-77
2021/08/05 02:02:54;;;;;;;7.00;6.40;;;17.50;61.10;;;;;;5086426;28;20494;-77
2021/08/05 02:05:30;;;;;;;7.07;6.07;;;17.40;61.00;;;;;;5053365;28;20131;-76
2021/08/05 02:08:03;;;;;;;7.45;6.68;;;17.40;61.20;;;;;;5071052;28;20056;-76
2021/08/05 02:10:40;;;;;;;6.28;5.68;;;17.40;61.20;;;;;;5069570;28;20033;-76
2021/08/05 02:13:14;;;;;;;6.90;6.20;;;17.30;61.10;;;;;;5087310;28;20028;-77
2021/08/05 02:15:46;;;;;;;9.27;6.32;;;17.30;61.20;;;;;;5073149;28;20644;-76
2021/08/05 02:18:13;;;;;;;9.25;6.95;;;17.30;61.20;;;;;;5066660;28;20083;-75
2021/08/05 02:20:42;;;;;;;7.55;6.85;;;17.30;61.20;;;;;;5066775;28;20167;-77
2021/08/05 02:23:10;;;;;;;7.47;6.78;;;17.30;61.30;;;;;;5053024;28;20025;-77
2021/08/05 02:25:38;;;;;;;7.55;6.85;;;17.20;61.20;;;;;;5070606;28;20037;-76
2021/08/05 02:28:05;;;;;;;7.47;6.80;;;17.20;61.30;;;;;;5053198;28;20033;-76
2021/08/05 02:30:33;;;;;;;7.57;6.85;;;17.20;61.30;;;;;;5066476;28;20112;-76
2021/08/05 02:32:59;;;;;;;7.57;6.78;;;17.20;61.50;;;;;;5068822;28;20049;-76
2021/08/05 02:35:27;;;;;;;7.47;6.70;;;17.10;61.30;;;;;;5052821;28;20074;-76
2021/08/05 02:37:54;;;;;;;8.00;7.00;;;17.10;61.30;;;;;;5070803;28;20024;-76
2021/08/05 02:40:20;;;;;;;7.72;6.68;;;17.10;61.40;;;;;;5073532;28;20036;-78
2021/08/05 02:42:47;;;;;;;7.65;6.97;;;17.10;61.50;;;;;;5074683;28;20021;-76
2021/08/05 02:45:14;;;;;;;8.65;6.90;;;17.10;61.50;;;;;;5073269;28;20079;-76
2021/08/05 02:47:41;;;;;;;7.53;6.82;;;17.00;61.40;;;;;;5073455;28;20067;-77
2021/08/05 02:50:08;;;;;;;8.48;7.13;;;17.00;61.40;;;;;;5073321;28;20032;-76
2021/08/05 02:52:35;;;;;;;9.40;7.40;;;17.00;61.40;;;;;;5074657;28;20241;-76
2021/08/05 02:55:05;;;;;;;10.50;7.55;;;17.00;61.50;;;;;;5074612;28;20029;-76
2021/08/05 02:57:32;;;;;;;7.93;7.18;;;16.90;61.50;;;;;;5073404;28;20028;-75
2021/08/05 02:59:59;;;;;;;7.93;6.93;;;16.90;61.40;;;;;;5074609;28;20037;-75
2021/08/05 03:02:26;;;;;;;7.50;6.80;;;16.90;61.50;;;;;;5055860;28;20079;-76
2021/08/05 03:04:52;;;;;;;8.60;7.70;;;16.90;61.50;;;;;;5074479;28;20395;-79
2021/08/05 03:07:18;;;;;;;8.68;7.78;;;16.90;61.60;;;;;;5064641;28;20479;-78
2021/08/05 03:09:44;;;;;;;9.15;6.88;;;16.90;61.60;;;;;;5074117;28;20132;-79
2021/08/05 03:12:10;;;;;;;7.70;6.90;;;16.80;61.50;;;;;;5055747;28;20496;-79
2021/08/05 03:14:36;;;;;;;8.10;7.20;;;16.80;61.60;;;;;;5074895;28;20046;-78
2021/08/05 03:17:02;;;;;;;8.20;6.97;;;16.80;61.60;;;;;;5074043;28;20438;-76
2021/08/05 03:19:28;;;;;;;8.13;7.32;;;16.80;61.70;;;;;;5074085;28;20410;-76
2021/08/05 03:21:56;;;;;;;8.02;7.15;;;16.70;61.60;;;;;;5074324;28;20052;-76
2021/08/05 03:24:21;;;;;;;7.47;6.60;;;16.70;61.60;;;;;;5056272;28;20040;-78
2021/08/05 03:26:47;;;;;;;7.88;7.07;;;16.70;61.60;;;;;;5072545;28;20443;-76
2021/08/05 03:29:13;;;;;;;7.63;6.80;;;16.70;61.70;;;;;;5074100;28;20082;-75
2021/08/05 03:31:39;;;;;;;7.38;6.68;;;16.70;61.80;;;;;;5073648;28;20053;-75
2021/08/05 03:34:05;;;;;;;7.78;6.97;;;16.70;61.80;;;;;;5073433;28;20030;-75
2021/08/05 03:36:31;;;;;;;6.97;6.38;;;16.60;61.70;;;;;;5073754;28;20520;-76
2021/08/05 03:38:57;;;;;;;8.27;7.43;;;16.60;61.70;;;;;;5073613;28;20038;-75
2021/08/05 03:41:23;;;;;;;7.72;7.00;;;16.60;61.80;;;;;;5064056;28;20115;-76
2021/08/05 03:43:49;;;;;;;7.53;6.82;;;16.60;61.80;;;;;;5073263;28;20119;-75
2021/08/05 03:46:15;;;;;;;7.57;6.88;;;16.60;61.90;;;;;;5071931;28;20037;-76
2021/08/05 03:48:41;;;;;;;7.68;6.97;;;16.60;61.90;;;;;;5055095;28;20123;-76
2021/08/05 03:51:07;;;;;;;7.65;6.80;;;16.60;62.00;;;;;;5072634;28;20029;-76
2021/08/05 03:53:33;;;;;;;7.25;6.55;;;16.60;62.00;;;;;;5073492;28;20029;-77
2021/08/05 03:55:59;;;;;;;7.93;7.18;;;16.60;62.00;;;;;;5071914;28;20491;-76
2021/08/05 03:58:25;;;;;;;7.60;6.90;;;16.50;61.90;;;;;;5073765;28;20051;-76
2021/08/05 04:00:51;;;;;;;7.95;7.22;;;16.60;62.10;;;;;;5073238;28;20471;-77
2021/08/05 04:03:17;;;;;;;8.70;7.05;;;16.50;62.00;;;;;;5055210;28;20032;-77
2021/08/05 04:05:43;;;;;;;7.85;7.07;;;16.50;62.00;;;;;;5060298;28;20040;-76
2021/08/05 04:08:09;;;;;;;8.30;6.97;;;16.60;62.20;;;;;;5069813;28;20070;-76
2021/08/05 04:10:35;;;;;;;10.27;7.03;;;16.50;62.10;;;;;;5065123;28;20037;-76
2021/08/05 04:13:01;;;;;;;7.68;6.63;;;16.50;62.10;;;;;;5054771;28;20513;-75
2021/08/05 04:15:27;;;;;;;7.72;6.80;;;16.50;62.20;;;;;;5072915;28;20533;-76
2021/08/05 04:17:53;;;;;;;8.50;7.13;;;16.50;62.20;;;;;;5072986;28;20479;-75
2021/08/05 04:20:21;;;;;;;7.57;6.90;;;16.50;62.20;;;;;;5071696;28;20406;-76
2021/08/05 04:22:49;;;;;;;7.15;6.47;;;16.60;62.40;;;;;;5071661;28;20654;-76
2021/08/05 04:25:16;;;;;;;7.60;6.80;;;16.60;62.40;;;;;;5072829;28;20471;-76
2021/08/05 04:27:42;;;;;;;7.35;6.65;;;16.50;62.20;;;;;;5072941;28;20020;-77
2021/08/05 04:30:10;;;;;;;7.10;6.20;;;16.60;62.40;;;;;;5072444;28;20029;-74
2021/08/05 04:32:37;;;;;;;7.05;6.35;;;16.60;62.40;;;;;;5072457;28;20124;-76
2021/08/05 04:35:05;;;;;;;7.05;6.35;;;16.50;62.30;;;;;;5072727;28;20028;-76
2021/08/05 04:37:30;;;;;;;7.10;6.47;;;16.60;62.50;;;;;;5072218;28;20384;-77
2021/08/05 04:39:57;;;;;;;8.00;7.00;;;16.60;62.50;;;;;;5072332;28;20127;-77
2021/08/05 04:42:24;;;;;;;7.22;6.63;;;16.60;62.50;;;;;;5063438;28;20075;-77
2021/08/05 04:44:50;;;;;;;6.57;5.93;;;16.60;62.50;;;;;;5072287;28;20050;-78
2021/08/05 04:47:16;;;;;;;8.10;6.90;;;16.60;62.50;;;;;;5050331;28;20032;-78
2021/08/05 04:49:42;;;;;;;8.13;6.55;;;16.50;62.40;;;;;;5066303;28;20495;-79
2021/08/05 04:52:08;;;;;;;7.13;6.47;;;16.60;62.50;;;;;;5080122;28;20021;-78
2021/08/05 04:54:34;;;;;;;6.82;6.10;;;16.50;62.40;;;;;;5071104;28;20043;-76
2021/08/05 04:57:03;;;;;;;7.40;6.68;;;16.60;62.60;;;;;;5068913;28;20028;-77
2021/08/05 04:59:29;;;;;;;7.28;6.57;;;16.50;62.50;;;;;;5067757;28;20055;-76
2021/08/05 05:01:55;;;;;;;8.18;7.38;;;16.60;62.60;;;;;;5068874;28;20087;-78
2021/08/05 05:04:21;;;;;;;8.68;6.72;;;16.60;62.60;;;;;;5048359;28;20040;-77
2021/08/05 05:06:47;;;;;;;7.90;7.10;;;16.50;62.50;;;;;;5048071;28;20108;-77
2021/08/05 05:09:13;;;;;;;6.80;6.18;;;16.50;62.50;;;;;;5063982;28;20116;-77
2021/08/05 05:11:39;;;;;;;6.47;5.88;;;16.60;62.70;;;;;;5032818;28;20059;-78
2021/08/05 05:14:05;;;;;;;6.30;5.80;;;16.60;62.70;;;;;;5039889;28;20467;-78
2021/08/05 05:16:31;;;;;;;6.40;5.63;;;16.60;62.70;;;;;;5063875;28;20037;-76
2021/08/05 05:18:57;;;;;;;6.97;6.28;;;16.60;63.30;;;;;;5053962;28;20123;-76
2021/08/05 05:21:23;;;;;;;7.15;6.35;;;16.60;62.70;;;;;;5070532;28;20032;-77
2021/08/05 05:23:49;;;;;;;8.55;6.63;;;16.60;62.80;;;;;;5080851;28;20035;-78
2021/08/05 05:26:16;;;;;;;7.65;5.72;;;16.70;62.90;;;;;;5080131;28;20040;-80
2021/08/05 05:28:42;;;;;;;6.65;6.05;;;16.70;62.90;;;;;;5071589;28;20028;-79
2021/08/05 05:31:08;;;;;;;7.25;6.55;;;16.70;62.90;;;;;;5074671;28;20039;-82
2021/08/05 05:33:34;;;;;;;7.32;6.63;;;16.70;62.90;;;;;;5067242;28;20024;-82
2021/08/05 05:36:00;;;;;;;6.70;6.00;;;16.70;62.90;;;;;;5067694;28;20028;-81
2021/08/05 05:38:29;;;;;;;7.25;6.55;;;16.80;63.10;;;;;;5066719;28;20379;-82
2021/08/05 05:40:55;;;;;;;8.88;6.55;;;16.80;63.10;;;;;;5050346;28;20111;-81
2021/08/05 05:43:21;;;;;;;6.38;5.78;;;16.80;63.10;;;;;;5082514;28;20136;-78
2021/08/05 05:45:47;;;;;;;7.82;7.05;;;16.80;63.10;;;;;;5064249;28;20527;-79
2021/08/05 05:48:13;;;;;;;8.15;6.20;;;16.80;63.10;;;;;;5073373;28;20479;-79
2021/08/05 05:50:39;;;;;;;7.80;6.78;;;16.90;63.30;;;;;;5067280;28;20063;-79
2021/08/05 05:53:06;;;;;;;6.88;6.18;;;16.90;63.60;;;;;;5058662;28;20063;-82
2021/08/05 05:55:32;;;;;;;7.38;6.68;;;16.90;63.30;;;;;;5049046;28;20551;-81
2021/08/05 05:57:58;;;;;;;7.32;6.70;;;16.90;63.30;;;;;;5067219;28;20119;-84
2021/08/05 06:00:24;;;;;;;7.78;6.97;;;16.90;63.20;;;;;;5055607;28;20096;-81
2021/08/05 06:02:50;;;;;;;7.72;7.00;;;17.00;63.40;;;;;;5054410;28;20146;-79
2021/08/05 06:05:16;;;;;;;7.45;6.65;;;17.00;63.30;;;;;;5069730;28;20392;-78
2021/08/05 06:07:51;;;;;;;7.70;7.00;;;17.10;63.50;;;;;;5067185;28;20419;-82
2021/08/05 06:10:19;;;;;;;8.50;7.70;;;17.10;63.60;;;;;;5078406;28;20028;-80
2021/08/05 06:12:46;;;;;;;10.98;7.53;;;17.20;63.60;;;;;;5078475;28;20493;-81
2021/08/05 06:15:14;;;;;;;10.00;7.57;;;17.30;63.70;;;;;;5073934;28;20038;-78
2021/08/05 06:17:45;;;;;;;7.95;7.22;;;17.30;63.70;;;;;;5073200;28;20048;-77
2021/08/05 06:20:13;;;;;;;9.25;8.02;;;17.40;63.90;;;;;;5062942;28;20561;-78
2021/08/05 06:22:39;;;;;;;8.82;7.93;;;17.40;63.90;;;;;;5064807;28;20498;-78
2021/08/05 06:25:07;;;;;;;9.40;8.05;;;17.50;63.90;;;;;;5063470;28;20128;-78
2021/08/05 06:27:32;;;;;;;8.70;7.88;;;17.60;64.10;;;;;;5047665;28;20086;-78
2021/08/05 06:29:59;;;;;;;9.10;8.20;;;17.70;64.20;;;;;;5061211;28;20511;-78
2021/08/05 06:32:25;;;;;;;10.20;9.07;;;17.80;64.30;;;;;;5055844;28;20503;-77
2021/08/05 06:34:51;;;;;;;11.05;8.88;;;17.90;64.40;;;;;;5047568;28;20132;-78
2021/08/05 06:37:17;;;;;;;9.95;8.98;;;17.90;64.40;;;;;;5054104;28;20122;-77
2021/08/05 06:39:43;;;;;;;9.52;8.68;;;18.00;64.70;;;;;;5047512;28;20032;-77
2021/08/05 06:42:09;;;;;;;10.60;9.18;;;18.10;64.80;;;;;;5064551;28;20021;-77
2021/08/05 06:44:36;;;;;;;9.70;8.80;;;18.10;64.80;;;;;;5065561;28;20105;-77
2021/08/05 06:47:04;;;;;;;9.82;8.82;;;18.20;64.90;;;;;;5047155;28;20531;-77
2021/08/05 06:49:30;;;;;;;9.85;8.85;;;18.30;65.10;;;;;;5047369;28;20549;-77
2021/08/05 06:51:55;;;;;;;11.10;9.30;;;18.30;65.00;;;;;;5066005;28;20487;-77
2021/08/05 06:54:21;;;;;;;11.32;8.88;;;18.40;65.10;;;;;;5065808;28;20038;-80
2021/08/05 06:56:47;;;;;;;10.27;9.32;;;18.50;65.20;;;;;;5066189;28;20042;-79
2021/08/05 06:59:14;;;;;;;10.13;8.98;;;18.60;65.40;;;;;;5063092;28;20040;-78
2021/08/05 07:01:41;;;;;;;11.23;8.98;;;18.60;65.30;;;;;;5031670;28;20025;-79
2021/08/05 07:04:09;;;;;;;10.20;9.20;;;18.70;65.40;;;;;;5068192;28;20042;-79
2021/08/05 07:06:35;;;;;;;10.73;9.57;;;18.70;65.40;;;;;;5086532;28;20051;-78
2021/08/05 07:09:01;;;;;;;11.25;9.00;;;18.80;65.50;;;;;;5051784;28;20032;-79
2021/08/05 07:11:27;;;;;;;12.00;10.00;;;18.90;65.60;;;;;;5047905;28;20131;-78
2021/08/05 07:13:53;;;;;;;12.68;9.25;;;18.90;65.50;;;;;;5065798;28;20029;-78
2021/08/05 07:16:20;;;;;;;11.38;9.60;;;19.00;65.70;;;;;;5065745;28;20392;-78
2021/08/05 07:18:46;;;;;;;10.52;9.52;;;19.10;65.80;;;;;;5065835;28;20097;-78
2021/08/05 07:21:12;;;;;;;10.15;9.25;;;19.10;65.70;;;;;;5065272;28;20043;-79
2021/08/05 07:23:38;;;;;;;10.15;9.15;;;19.20;65.70;;;;;;5066150;28;20390;-80
2021/08/05 07:26:04;;;;;;;10.25;9.20;;;19.40;65.90;;;;;;5066311;28;20272;-78
2021/08/05 07:28:30;;;;;;;11.70;8.57;;;19.40;65.70;;;;;;5070079;28;20386;-78
2021/08/05 07:30:57;;;;;;;9.77;8.25;;;19.40;65.60;;;;;;5050897;28;20028;-80
2021/08/05 07:33:24;;;;;;;10.05;9.05;;;19.50;65.70;;;;;;5068350;28;20035;-80
2021/08/05 07:35:50;;;;;;;10.05;9.05;;;19.60;65.80;;;;;;5050964;28;20036;-78
2021/08/05 07:38:16;;;;;;;10.45;8.65;;;19.60;65.70;;;;;;5068901;28;20032;-79
2021/08/05 07:40:42;;;;;;;9.05;8.20;;;19.70;65.80;;;;;;5069065;28;20116;-79
2021/08/05 07:43:08;;;;;;;10.48;8.65;;;19.80;65.90;;;;;;5050414;28;20036;-79
2021/08/05 07:45:34;;;;;;;9.13;8.23;;;19.80;65.70;;;;;;5067279;28;20037;-79
2021/08/05 07:48:00;;;;;;;9.77;8.77;;;19.90;65.80;;;;;;5068814;28;20138;-80
2021/08/05 07:50:26;;;;;;;9.40;8.50;;;20.00;65.90;;;;;;5068995;28;20028;-79
2021/08/05 07:52:53;;;;;;;9.30;8.35;;;20.00;65.80;;;;;;5050526;28;20016;-79
2021/08/05 07:55:19;;;;;;;9.35;8.40;;;20.10;65.90;;;;;;5068657;28;20032;-79
2021/08/05 07:57:46;;;;;;;9.15;8.35;;;20.20;65.90;;;;;;5051176;28;20056;-80
2021/08/05 08:00:12;;;;;;;9.52;8.27;;;20.20;65.80;;;;;;5050875;28;20064;-78
2021/08/05 08:02:42;;;;;;;9.50;8.52;;;20.30;65.90;;;;;;5050303;28;20032;-78
2021/08/05 08:05:11;;;;;;;9.32;8.18;;;20.40;65.90;;;;;;5067643;28;20024;-82
2021/08/05 08:07:41;;;;;;;12.13;9.32;;;20.40;65.70;;;;;;5066294;28;20036;-80
2021/08/05 08:10:08;;;;;;;8.63;7.72;;;20.40;65.70;;;;;;5030013;28;20033;-79
2021/08/05 08:12:34;;;;;;;8.00;7.22;;;20.40;65.60;;;;;;5033769;28;20479;-79
2021/08/05 08:15:01;;;;;;;8.20;7.28;;;20.40;65.70;;;;;;5068800;28;20475;-80
2021/08/05 08:17:27;;;;;;;8.02;6.95;;;20.50;65.80;;;;;;5068047;28;20025;-80
2021/08/05 08:19:53;;;;;;;10.38;8.57;;;20.50;65.70;;;;;;5068734;28;20082;-79
2021/08/05 08:22:19;;;;;;;8.88;7.47;;;20.50;65.70;;;;;;5067541;28;20028;-79
2021/08/05 08:24:45;;;;;;;8.10;7.30;;;20.50;65.70;;;;;;5068536;28;20561;-77
2021/08/05 08:27:11;;;;;;;8.05;7.25;;;20.60;65.70;;;;;;5068640;28;20077;-77
2021/08/05 08:29:37;;;;;;;10.48;7.30;;;20.60;65.70;;;;;;5057284;28;20383;-79
2021/08/05 08:32:03;;;;;;;8.15;7.35;;;20.70;65.80;;;;;;5062792;28;20139;-82
2021/08/05 08:34:29;;;;;;;8.05;7.25;;;20.70;65.70;;;;;;5068287;28;20033;-78
2021/08/05 08:36:56;;;;;;;9.73;7.32;;;20.80;65.80;;;;;;5063261;28;20498;-79
2021/08/05 08:39:23;;;;;;;9.73;8.35;;;20.90;66.00;;;;;;5053409;28;20032;-78
2021/08/05 08:41:49;;;;;;;8.38;6.93;;;21.00;66.00;;;;;;5067842;28;20060;-77
2021/08/05 08:44:16;;;;;;;10.02;6.90;;;21.20;66.10;;;;;;5068345;28;20020;-78
2021/08/05 08:46:45;;;;;;;8.43;6.95;;;21.30;66.10;;;;;;5067819;28;20028;-77
2021/08/05 08:49:12;;;;;;;7.00;6.30;;;21.50;66.20;;;;;;5067544;28;20029;-76
2021/08/05 08:51:38;;;;;;;8.40;7.53;;;21.60;66.10;;;;;;5067685;28;20036;-78
2021/08/05 08:54:07;;;;;;;7.65;6.75;;;21.70;66.00;;;;;;5049570;28;20033;-77
2021/08/05 08:56:34;;;;;;;8.00;6.25;;;21.80;66.00;;;;;;5067361;28;20028;-77
2021/08/05 08:59:01;;;;;;;7.55;6.75;;;21.80;65.80;;;;;;5068031;28;20052;-77
2021/08/05 09:01:29;;;;;;;9.70;7.30;;;21.90;65.90;;;;;;5067365;28;20040;-77
2021/08/05 09:03:55;;;;;;;7.15;5.90;;;21.90;65.80;;;;;;5051316;28;20040;-77
2021/08/05 09:06:21;;;;;;;7.00;6.28;;;22.00;65.90;;;;;;5047181;28;20044;-78
2021/08/05 09:08:49;;;;;;;6.68;5.97;;;22.10;65.90;;;;;;5041675;28;20029;-78
2021/08/05 09:11:16;;;;;;;6.50;5.40;;;22.20;65.80;;;;;;5048975;28;20502;-77
2021/08/05 09:13:42;;;;;;;6.30;5.70;;;22.20;65.70;;;;;;5049025;28;20198;-77
2021/08/05 09:16:31;;;;;;;5.50;4.90;;;22.20;65.60;;;;;;5049552;28;20491;-78
2021/08/05 09:19:13;;;;;;;6.28;5.68;;;22.20;65.50;;;;;;5048883;28;20037;-78
2021/08/05 09:21:50;;;;;;;6.72;5.53;;;22.30;65.70;;;;;;5066809;28;20035;-78
2021/08/05 09:24:17;;;;;;;7.43;5.03;;;22.30;65.60;;;;;;5066584;28;20047;-77
2021/08/05 09:26:46;;;;;;;5.97;5.30;;;22.30;66.00;;;;;;5048994;28;20141;-78
2021/08/05 09:29:15;;;;;;;5.57;5.07;;;22.30;65.40;;;;;;5049305;28;20103;-78
2021/08/05 09:31:50;;;;;;;5.28;4.72;;;22.20;65.20;;;;;;5066149;28;20048;-76
2021/08/05 09:34:20;;;;;;;5.32;4.82;;;22.20;65.20;;;;;;5042456;28;20029;-78
2021/08/05 09:36:49;;;;;;;4.65;4.25;;;22.20;65.20;;;;;;5066831;28;20028;-77
2021/08/05 09:39:23;;;;;;;5.47;4.28;;;22.20;65.20;;;;;;5067251;28;20035;-77
2021/08/05 09:42:04;;;;;;;5.78;4.85;;;22.20;65.10;;;;;;5064549;28;20082;-78
2021/08/05 09:44:36;;;;;;;5.78;5.07;;;22.20;65.10;;;;;;5028636;28;20029;-77
2021/08/05 09:47:20;;;;;;;7.40;5.28;;;22.20;65.10;;;;;;5057433;28;20032;-78
2021/08/05 09:49:46;;;;;;;4.60;4.15;;;22.20;65.00;;;;;;5066032;28;20107;-77
2021/08/05 09:52:13;;;;;;;6.50;4.38;;;22.30;65.10;;;;;;5066395;28;20120;-78
2021/08/05 09:54:47;;;;;;;5.50;4.50;;;22.30;65.00;;;;;;5066528;28;20103;-77
2021/08/05 09:57:20;;;;;;;4.97;4.47;;;22.30;65.00;;;;;;5066175;28;20028;-78
2021/08/05 09:59:59;;;;;;;5.65;4.75;;;22.30;65.00;;;;;;5066065;28;20032;-78
2021/08/05 10:02:27;;;;;;;5.88;4.85;;;22.30;65.00;;;;;;5065889;28;20028;-78
2021/08/05 10:04:54;;;;;;;5.55;4.50;;;22.20;64.80;;;;;;5066000;28;20036;-79
2021/08/05 10:07:20;;;;;;;5.38;4.68;;;22.20;64.70;;;;;;5066915;28;20037;-79
2021/08/05 10:09:56;;;;;;;7.70;4.13;;;22.20;64.70;;;;;;5065691;28;20031;-79
2021/08/05 10:12:30;;;;;;;5.22;4.55;;;22.20;64.70;;;;;;5047634;28;20032;-79
2021/08/05 10:15:12;;;;;;;6.75;3.55;;;22.30;65.00;;;;;;5066161;28;20420;-80
2021/08/05 10:17:41;;;;;;;4.75;4.25;;;22.30;64.90;;;;;;5064289;28;20032;-78
2021/08/05 10:20:12;;;;;;;4.38;3.97;;;22.40;65.00;;;;;;5064573;28;20634;-78
2021/08/05 10:22:41;;;;;;;5.20;3.95;;;22.50;65.10;;;;;;5049004;28;20494;-80
2021/08/05 10:25:14;;;;;;;4.78;4.10;;;22.60;65.10;;;;;;5065237;28;20032;-79
2021/08/05 10:27:40;;;;;;;4.72;4.20;;;22.70;65.00;;;;;;5048817;28;20061;-78
2021/08/05 10:30:10;;;;;;;3.80;3.45;;;22.80;65.00;;;;;;5066477;28;20064;-78
2021/08/05 10:32:37;;;;;;;3.60;3.30;;;22.80;64.90;;;;;;5065627;28;20048;-78
2021/08/05 10:35:03;;;;;;;3.78;3.22;;;22.90;65.60;;;;;;5066676;28;20071;-78
2021/08/05 10:37:29;;;;;;;3.80;3.50;;;23.10;65.30;;;;;;5066129;28;20032;-79
2021/08/05 10:39:56;;;;;;;4.07;3.08;;;23.10;65.00;;;;;;5032337;28;20039;-82
2021/08/05 10:42:22;;;;;;;5.35;2.90;;;23.20;65.00;;;;;;5066149;28;20041;-79
2021/08/05 10:44:51;;;;;;;3.42;2.42;;;23.20;64.30;;;;;;5048263;28;20115;-82
2021/08/05 10:47:30;;;;;;;3.58;2.38;;;23.10;63.90;;;;;;5066325;28;20028;-82
2021/08/05 10:50:03;;;;;;;3.00;2.60;;;23.10;63.90;;;;;;5029159;28;20504;-81
2021/08/05 10:52:36;;;;;;;3.47;2.42;;;23.00;63.70;;;;;;5049323;28;20154;-81
2021/08/05 10:55:20;;;;;;;2.50;2.30;;;22.90;63.60;;;;;;5066453;28;20032;-80
2021/08/05 10:58:07;;;;;;;3.05;2.55;;;22.80;63.60;;;;;;5066376;28;20111;-78
2021/08/05 11:00:54;;;;;;;3.70;2.70;;;22.80;63.90;;;;;;5068231;28;20467;-79
2021/08/05 11:03:32;;;;;;;2.65;1.90;;;22.80;64.10;;;;;;5069659;28;20024;-79
2021/08/05 11:05:59;;;;;;;4.10;2.22;;;23.10;64.60;;;;;;5070330;28;20132;-78
2021/08/05 11:08:27;;;;;;;4.88;2.58;;;23.30;64.60;;;;;;5052036;28;20032;-78
2021/08/05 11:11:20;;;;;;;2.35;2.15;;;23.60;64.70;;;;;;5069797;28;20040;-79
2021/08/05 11:14:01;;;;;;;2.47;2.28;;;23.90;64.80;;;;;;5061727;28;20034;-79
2021/08/05 11:17:01;;;;;;;6.05;2.42;;;24.10;64.80;;;;;;5069064;28;20383;-79
2021/08/05 11:19:29;;;;;;;6.20;2.80;;;24.30;64.80;;;;;;5068053;28;20040;-80
2021/08/05 11:21:56;;;;;;;3.75;2.63;;;24.40;64.70;;;;;;5069339;28;20379;-78
2021/08/05 11:24:47;;;;;;;5.53;2.55;;;24.50;64.70;;;;;;5070075;28;20044;-78
2021/08/05 11:27:15;;;;;;;6.20;2.50;;;24.50;64.60;;;;;;5070522;28;20487;-79
2021/08/05 11:29:41;;;;;;;3.60;2.13;;;24.60;64.80;;;;;;5051747;28;20041;-77
2021/08/05 11:32:23;;;;;;;5.15;2.33;;;24.70;64.80;;;;;;5069442;28;20135;-81
2021/08/05 11:35:02;;;;;;;3.53;2.17;;;24.70;64.70;;;;;;5069327;28;20387;-77
2021/08/05 11:37:29;;;;;;;5.03;2.40;;;24.80;64.80;;;;;;5038056;28;20140;-77
2021/08/05 11:39:57;;;;;;;3.78;2.17;;;24.90;64.80;;;;;;5068445;28;20134;-76
2021/08/05 11:42:25;;;;;;;3.30;2.25;;;25.00;64.80;;;;;;5069205;28;20485;-76
2021/08/05 11:44:58;;;;;;;3.03;2.35;;;25.10;64.50;;;;;;5052034;28;20063;-77
2021/08/05 11:47:41;;;;;;;5.25;2.20;;;25.30;64.40;;;;;;5067372;28;20123;-76
2021/08/05 11:50:11;;;;;;;2.97;2.22;;;25.40;64.20;;;;;;5047778;28;20105;-76
2021/08/05 11:52:39;;;;;;;3.80;2.17;;;25.40;64.00;;;;;;5053306;28;20115;-77
2021/08/05 11:55:08;;;;;;;2.35;1.80;;;25.60;63.90;;;;;;5069313;28;20596;-76
2021/08/05 11:58:02;;;;;;;5.10;2.58;;;25.60;63.70;;;;;;5052129;28;20035;-76
2021/08/05 12:00:35;;;;;;;4.28;2.15;;;25.60;63.60;;;;;;5049894;28;20047;-77
2021/08/05 12:03:09;;;;;;;2.72;1.48;;;25.60;63.60;;;;;;5068615;28;20071;-77
2021/08/05 12:05:38;;;;;;;2.83;1.83;;;25.70;63.60;;;;;;5069134;28;20040;-76
2021/08/05 12:08:04;;;;;;;2.58;1.70;;;25.90;63.50;;;;;;5050475;28;20499;-77
2021/08/05 12:10:32;;;;;;;4.75;2.35;;;26.10;63.20;;;;;;5068940;28;20039;-76
2021/08/05 12:13:03;;;;;;;2.25;1.60;;;26.40;63.00;;;;;;5067892;28;20082;-77
2021/08/05 12:15:37;;;;;;;2.55;1.70;;;26.60;62.70;;;;;;5068949;28;20426;-77
2021/08/05 12:18:10;;;;;;;1.77;1.60;;;26.70;62.40;;;;;;5068413;28;20039;-77
2021/08/05 12:20:42;;;;;;;3.28;1.70;;;26.80;62.20;;;;;;5050885;28;20082;-77
2021/08/05 12:23:15;;;;;;;1.95;1.67;;;26.90;62.10;;;;;;5050522;28;20052;-78
2021/08/05 12:25:48;;;;;;;2.58;1.88;;;26.90;62.00;;;;;;5068685;28;20053;-77
2021/08/05 12:28:19;;;;;;;1.48;1.33;;;27.00;61.90;;;;;;5050845;28;20024;-77
2021/08/05 12:30:48;;;;;;;1.75;1.65;;;27.00;61.70;;;;;;5049689;28;20086;-76
2021/08/05 12:33:22;;;;;;;1.77;1.33;;;27.10;61.70;;;;;;5046743;28;20091;-78
2021/08/05 12:36:06;;;;;;;3.20;1.58;;;27.00;61.50;;;;;;5030538;28;20055;-76
2021/08/05 12:38:45;;;;;;;2.63;1.48;;;27.10;61.50;;;;;;5048363;28;20025;-77
2021/08/05 12:41:16;;;;;;;2.05;1.42;;;27.10;61.90;;;;;;5013958;28;20449;-76
2021/08/05 12:43:44;;;;;;;1.60;1.20;;;27.20;61.30;;;;;;5044925;28;20499;-77
2021/08/05 12:46:10;;;;;;;1.88;1.63;;;27.20;61.20;;;;;;5044836;28;20424;-76
2021/08/05 12:48:38;;;;;;;1.98;1.50;;;27.20;61.10;;;;;;5026930;28;20063;-76
2021/08/05 12:51:04;;;;;;;1.42;1.25;;;27.30;61.00;;;;;;5048019;28;20036;-77
2021/08/05 12:53:35;;;;;;;2.10;1.50;;;27.30;60.90;;;;;;5047787;28;20025;-77